LUKK Airport Information

Runway Information
Runway 08 Length 11778 ft width 148 ft
Elevation 399 ft Threshold ft Heading 88
Runway 26 Length 11778 ft Width 148 ft
Elevation 279 ft Threshold ft Heading 268
Runway 09 Length 7818 ft width 148 ft
Elevation 322 ft Threshold ft Heading 0
Runway 27 Length 7818 ft Width 148 ft
Elevation 322 ft Threshold ft Heading 0
Airport Frequencies
Type APP Name APP Frequency 125.9 MHZ
Type ATIS Name ATIS Frequency 133.7 MHZ
Type GND Name GND Frequency 121.8 MHZ
Type TWR Name TWR Frequency 118.1 MHZ
Airport Navaids
Type VOR-DME Name Chisinau Frequency 113700 KHZ
Airport Weather Information & NOTAM
ADDS - METARS form results

(1104 UTC 08 August 2022)
Data provider http://aviationweather.gov/metar/data/
 
METAR text: LUKK 081100Z 03008KT 320V080 CAVOK 30/17 Q1018 NOSIG
Conditions at: LUKK (CHISINAU INTL , MD) observed 1100 UTC 08 August 2022
Temperature: 30.0°C (86°F)
Dewpoint: 17.0°C (63°F) [RH = 46%]
Pressure (altimeter): 30.06 inches Hg (1018.0 mb)
Winds: from the NNE (30 degrees) at 9 MPH (8 knots; 4.1 m/s)
Visibility: 6 or more miles (10+ km)
Ceiling: ceiling and visibility are OK
Clouds: unknown
Weather: no significant weather observed at this time

METAR text: LUKK 081030Z 04007KT 020V110 CAVOK 29/18 Q1018 NOSIG
Conditions at: LUKK (CHISINAU INTL , MD) observed 1030 UTC 08 August 2022
Temperature: 29.0°C (84°F)
Dewpoint: 18.0°C (64°F) [RH = 52%]
Pressure (altimeter): 30.06 inches Hg (1018.0 mb)
Winds: from the NE (40 degrees) at 8 MPH (7 knots; 3.6 m/s)
Visibility: 6 or more miles (10+ km)
Ceiling: ceiling and visibility are OK
Clouds: unknown
Weather: no significant weather observed at this time

Forecast for: LUKK (CHISINAU INTL , MD)
Text: TAF LUKK 080520Z 0806/0906 02010KT CAVOK
Forecast period: 0600 UTC 08 August 2022 to 0600 UTC 09 August 2022
Forecast type: FROM: standard forecast or significant change
Winds: from the NNE (20 degrees) at 12 MPH (10 knots; 5.1 m/s)
Visibility: 6 or more miles (10+ km)
Ceiling: unknown
Clouds: missing
Weather: NSW  (no significant weather)
Text: TEMPO 0812/0818 SCT045CB
Forecast period: 1200 to 1800 UTC 08 August 2022
Forecast type: TEMPORARY: The following changes expected for less than half the time period
Visibility: missing
Ceiling: at least 12,000 feet AGL
Clouds: scattered clouds at 4500 feet AGL
Weather: no significant weather forecast for this period